createdAt,value
2018-03-23T00:00:54.585Z,1002.47
2018-03-23T00:01:54.640Z,1002.46
2018-03-23T00:02:54.844Z,1002.49
2018-03-23T00:03:54.750Z,1002.47
2018-03-23T00:04:54.803Z,1002.50
2018-03-23T00:05:54.859Z,1002.49
2018-03-23T00:06:54.913Z,1002.46
2018-03-23T00:07:54.967Z,1002.47
2018-03-23T00:08:55.020Z,1002.51
2018-03-23T00:09:55.076Z,1002.47
2018-03-23T00:10:55.137Z,1002.50
2018-03-23T00:11:55.184Z,1002.46
2018-03-23T00:12:55.241Z,1002.48
2018-03-23T00:13:55.298Z,1002.48
2018-03-23T00:14:55.349Z,1002.45
2018-03-23T00:15:55.404Z,1002.45
2018-03-23T00:16:55.458Z,1002.43
2018-03-23T00:17:55.515Z,1002.41
2018-03-23T00:18:55.569Z,1002.40
2018-03-23T00:19:55.776Z,1002.36
2018-03-23T00:20:55.680Z,1002.38
2018-03-23T00:21:55.732Z,1002.37
2018-03-23T00:22:55.788Z,1002.37
2018-03-23T00:23:55.843Z,1002.35
2018-03-23T00:24:55.894Z,1002.39
2018-03-23T00:25:55.950Z,1002.39
2018-03-23T00:26:56.006Z,1002.34
2018-03-23T00:27:56.060Z,1002.37
2018-03-23T00:28:56.116Z,1002.36
2018-03-23T00:29:56.179Z,1002.38
2018-03-23T00:30:56.223Z,1002.37
2018-03-23T00:31:56.278Z,1002.32
2018-03-23T00:32:56.333Z,1002.32
2018-03-23T00:33:56.387Z,1002.30
2018-03-23T00:34:56.443Z,1002.30
2018-03-23T00:35:56.496Z,1002.32
2018-03-23T00:36:57.216Z,1002.30
2018-03-23T00:37:57.249Z,1002.27
2018-03-23T00:38:57.228Z,1002.26
2018-03-23T00:39:56.714Z,1002.27
2018-03-23T00:40:56.770Z,1002.25
2018-03-23T00:41:56.823Z,1002.26
2018-03-23T00:42:56.879Z,1002.23
2018-03-23T00:43:56.933Z,1002.25
2018-03-23T00:44:56.996Z,1002.28
2018-03-23T00:45:57.042Z,1002.26
2018-03-23T00:46:57.097Z,1002.25
2018-03-23T00:47:57.151Z,1002.24
2018-03-23T00:48:57.223Z,1002.23
2018-03-23T00:49:57.261Z,1002.23
2018-03-23T00:50:57.316Z,1002.21
2018-03-23T00:51:57.377Z,1002.20
2018-03-23T00:52:57.425Z,1002.18
2018-03-23T00:53:57.492Z,1002.18
2018-03-23T00:54:57.543Z,1002.19
2018-03-23T00:55:57.588Z,1002.21
2018-03-23T00:56:57.642Z,1002.19
2018-03-23T00:57:57.698Z,1002.17
2018-03-23T00:58:57.752Z,1002.17
2018-03-23T00:59:57.807Z,1002.16
2018-03-23T01:00:57.861Z,1002.13
2018-03-23T01:01:57.916Z,1002.13
2018-03-23T01:02:57.980Z,1002.09
2018-03-23T01:03:58.040Z,1002.14
2018-03-23T01:04:58.078Z,1002.07
2018-03-23T01:05:58.135Z,1002.09
2018-03-23T01:06:58.191Z,1002.09
2018-03-23T01:07:58.244Z,1002.09
2018-03-23T01:08:58.299Z,1002.09
2018-03-23T01:09:58.354Z,1002.07
2018-03-23T01:10:58.409Z,1002.08
2018-03-23T01:11:58.463Z,1002.13
2018-03-23T01:12:58.516Z,1002.15
2018-03-23T01:13:58.572Z,1002.04
2018-03-23T01:14:58.628Z,1002.07
2018-03-23T01:15:58.679Z,1002.03
2018-03-23T01:16:58.735Z,1002.05
2018-03-23T01:17:58.790Z,1001.99
2018-03-23T01:18:58.845Z,1001.95
2018-03-23T01:19:58.900Z,1001.97
2018-03-23T01:20:58.954Z,1001.94
2018-03-23T01:21:59.009Z,1001.94
2018-03-23T01:22:59.064Z,1001.94
2018-03-23T01:23:59.117Z,1001.93
2018-03-23T01:24:59.173Z,1001.93
2018-03-23T01:25:59.478Z,1001.90
2018-03-23T01:26:59.282Z,1001.89
2018-03-23T01:27:59.350Z,1001.87
2018-03-23T01:28:59.391Z,1001.89
2018-03-23T01:29:59.445Z,1001.90
2018-03-23T01:30:59.501Z,1001.90
2018-03-23T01:31:59.555Z,1001.89
2018-03-23T01:32:59.609Z,1001.85
2018-03-23T01:33:59.666Z,1001.85
2018-03-23T01:34:59.719Z,1001.85
2018-03-23T01:35:59.771Z,1001.85
2018-03-23T01:36:59.881Z,1001.84
2018-03-23T01:37:59.882Z,1001.83
2018-03-23T01:38:59.937Z,1001.87
2018-03-23T01:39:59.991Z,1001.81
2018-03-23T01:41:00.048Z,1001.81
2018-03-23T01:42:00.099Z,1001.84
2018-03-23T01:43:00.154Z,1001.80
2018-03-23T01:44:00.207Z,1001.81
2018-03-23T01:45:00.264Z,1001.83
2018-03-23T01:46:00.320Z,1001.81
2018-03-23T01:47:00.372Z,1001.82
2018-03-23T01:48:00.427Z,1001.79
2018-03-23T01:49:00.487Z,1001.79
2018-03-23T01:50:00.538Z,1001.81
2018-03-23T01:51:00.591Z,1001.80
2018-03-23T01:52:00.645Z,1001.81
2018-03-23T01:53:00.700Z,1001.82
2018-03-23T01:54:00.755Z,1001.80
2018-03-23T01:55:00.810Z,1001.75
2018-03-23T01:56:00.864Z,1001.78
2018-03-23T01:57:00.918Z,1001.76
2018-03-23T01:58:00.973Z,1001.71
2018-03-23T01:59:01.028Z,1001.72
2018-03-23T02:00:01.082Z,1001.70
2018-03-23T02:01:01.142Z,1001.71
2018-03-23T02:02:01.192Z,1001.75
2018-03-23T02:03:01.247Z,1001.72
2018-03-23T02:04:01.301Z,1001.74
2018-03-23T02:05:01.356Z,1001.75
2018-03-23T02:06:01.560Z,1001.73
2018-03-23T02:07:01.465Z,1001.73
2018-03-23T02:08:01.550Z,1001.73
2018-03-23T02:09:01.574Z,1001.75
2018-03-23T02:10:01.628Z,1001.75
2018-03-23T02:11:01.686Z,1001.73
2018-03-23T02:12:01.738Z,1001.73
2018-03-23T02:13:01.793Z,1001.75
2018-03-23T02:14:01.850Z,1001.76
2018-03-23T02:15:01.902Z,1001.73
2018-03-23T02:16:01.955Z,1001.69
2018-03-23T02:17:02.011Z,1001.72
2018-03-23T02:18:02.067Z,1001.69
2018-03-23T02:19:02.122Z,1001.67
2018-03-23T02:20:02.176Z,1001.68
2018-03-23T02:21:02.228Z,1001.65
2018-03-23T02:22:02.284Z,1001.64
2018-03-23T02:23:02.339Z,1001.65
2018-03-23T02:24:02.400Z,1001.66
2018-03-23T02:25:02.467Z,1001.67
2018-03-23T02:26:02.506Z,1001.60
2018-03-23T02:27:02.557Z,1001.57
2018-03-23T02:28:02.611Z,1001.57
2018-03-23T02:29:02.667Z,1001.57
2018-03-23T02:30:02.762Z,1001.56
2018-03-23T02:31:02.777Z,1001.51
2018-03-23T02:32:02.830Z,1001.54
2018-03-23T02:33:02.885Z,1001.56
2018-03-23T02:34:02.947Z,1001.50
2018-03-23T02:35:02.994Z,1001.48
2018-03-23T02:36:03.048Z,1001.48
2018-03-23T02:37:03.104Z,1001.45
2018-03-23T02:38:03.162Z,1001.45
2018-03-23T02:39:03.214Z,1001.37
2018-03-23T02:40:03.267Z,1001.40
2018-03-23T02:41:03.321Z,1001.37
2018-03-23T02:42:03.375Z,1001.36
2018-03-23T02:43:03.431Z,1001.35
2018-03-23T02:44:03.487Z,1001.34
2018-03-23T02:45:03.540Z,1001.34
2018-03-23T02:46:03.594Z,1001.38
2018-03-23T02:47:03.661Z,1001.34
2018-03-23T02:48:03.704Z,1001.31
2018-03-23T02:49:03.758Z,1001.29
2018-03-23T02:50:03.813Z,1001.29
2018-03-23T02:51:03.873Z,1001.29
2018-03-23T02:52:03.922Z,1001.25
2018-03-23T02:53:03.976Z,1001.27
2018-03-23T02:54:04.032Z,1001.27
2018-03-23T02:55:04.111Z,1001.22
2018-03-23T02:56:04.140Z,1001.24
2018-03-23T02:57:04.195Z,1001.26
2018-03-23T02:58:04.249Z,1001.26
2018-03-23T02:59:04.303Z,1001.27
2018-03-23T03:00:04.356Z,1001.23
2018-03-23T03:01:04.423Z,1001.28
2018-03-23T03:02:04.465Z,1001.24
2018-03-23T03:03:04.522Z,1001.28
2018-03-23T03:04:04.575Z,1001.25
2018-03-23T03:05:04.630Z,1001.22
2018-03-23T03:06:04.685Z,1001.21
2018-03-23T03:07:04.739Z,1001.26
2018-03-23T03:08:04.791Z,1001.20
2018-03-23T03:09:04.847Z,1001.20
2018-03-23T03:10:04.901Z,1001.16
2018-03-23T03:11:04.956Z,1001.17
2018-03-23T03:12:05.010Z,1001.13
2018-03-23T03:13:05.063Z,1001.14
2018-03-23T03:14:05.119Z,1001.13
2018-03-23T03:15:05.173Z,1001.13
2018-03-23T03:16:05.226Z,1001.08
2018-03-23T03:17:05.282Z,1001.17
2018-03-23T03:18:05.336Z,1001.06
2018-03-23T03:19:05.392Z,1001.06
2018-03-23T03:20:05.445Z,1001.02
2018-03-23T03:21:05.499Z,1001.01
2018-03-23T03:22:05.555Z,1000.99
2018-03-23T03:23:05.609Z,1000.99
2018-03-23T03:24:05.662Z,1000.98
2018-03-23T03:25:05.716Z,1000.97
2018-03-23T03:26:05.772Z,1000.97
2018-03-23T03:27:05.827Z,1000.91
2018-03-23T03:28:05.881Z,1000.97
2018-03-23T03:29:05.935Z,1000.94
2018-03-23T03:30:05.991Z,1000.93
2018-03-23T03:31:06.046Z,1000.95
2018-03-23T03:32:06.098Z,1000.92
2018-03-23T03:33:06.153Z,1000.96
2018-03-23T03:34:06.207Z,1000.91
2018-03-23T03:35:06.262Z,1000.90
2018-03-23T03:36:06.318Z,1000.88
2018-03-23T03:37:06.371Z,1000.89
2018-03-23T03:38:06.425Z,1000.83
2018-03-23T03:39:06.481Z,1000.89
2018-03-23T03:40:06.534Z,1000.89
2018-03-23T03:41:06.594Z,1000.85
2018-03-23T03:42:06.644Z,1000.85
2018-03-23T03:43:06.698Z,1000.83
2018-03-23T03:44:06.751Z,1000.85
2018-03-23T03:45:06.807Z,1000.83
2018-03-23T03:46:06.866Z,1000.86
2018-03-23T03:47:06.916Z,1000.84
2018-03-23T03:48:06.970Z,1000.82
2018-03-23T03:49:07.025Z,1000.79
2018-03-23T03:50:07.078Z,1000.84
2018-03-23T03:51:07.385Z,1000.80
2018-03-23T03:52:07.190Z,1000.76
2018-03-23T03:53:07.254Z,1000.78
2018-03-23T03:54:07.297Z,1000.79
2018-03-23T03:55:07.353Z,1000.75
2018-03-23T03:56:07.420Z,1000.76
2018-03-23T03:57:07.461Z,1000.74
2018-03-23T03:58:07.516Z,1000.72
2018-03-23T03:59:07.571Z,1000.68
2018-03-23T04:00:07.624Z,1000.67
2018-03-23T04:01:08.247Z,1000.71
2018-03-23T04:02:07.734Z,1000.70
2018-03-23T04:03:07.792Z,1000.72
2018-03-23T04:04:07.847Z,1000.70
2018-03-23T04:05:07.937Z,1000.70
2018-03-23T04:06:07.952Z,1000.68
2018-03-23T04:07:08.007Z,1000.67
2018-03-23T04:08:08.061Z,1000.66
2018-03-23T04:09:08.113Z,1000.68
2018-03-23T04:10:08.169Z,1000.62
2018-03-23T04:11:08.225Z,1000.69
2018-03-23T04:12:08.279Z,1000.73
2018-03-23T04:13:08.331Z,1000.67
2018-03-23T04:14:08.387Z,1000.67
2018-03-23T04:15:08.440Z,1000.62
2018-03-23T04:16:08.496Z,1000.70
2018-03-23T04:17:08.552Z,1000.65
2018-03-23T04:18:08.605Z,1000.68
2018-03-23T04:19:08.810Z,1000.69
2018-03-23T04:20:08.711Z,1000.67
2018-03-23T04:21:08.771Z,1000.67
2018-03-23T04:22:08.821Z,1000.63
2018-03-23T04:23:08.877Z,1000.63
2018-03-23T04:24:08.930Z,1000.57
2018-03-23T04:25:08.987Z,1000.60
2018-03-23T04:26:09.040Z,1000.58
2018-03-23T04:27:09.095Z,1000.56
2018-03-23T04:28:09.148Z,1000.60
2018-03-23T04:29:09.203Z,1000.64
2018-03-23T04:30:09.258Z,1000.61
2018-03-23T04:31:09.312Z,1000.63
2018-03-23T04:32:09.373Z,1000.58
2018-03-23T04:33:09.423Z,1000.61
2018-03-23T04:34:09.476Z,1000.57
2018-03-23T04:35:09.530Z,1000.56
2018-03-23T04:36:10.035Z,1000.54
2018-03-23T04:37:09.638Z,1000.51
2018-03-23T04:38:09.692Z,1000.53
2018-03-23T04:39:09.746Z,1000.46
2018-03-23T04:40:09.800Z,1000.45
2018-03-23T04:41:09.855Z,1000.44
2018-03-23T04:42:09.914Z,1000.42
2018-03-23T04:43:09.964Z,1000.39
2018-03-23T04:44:10.017Z,1000.38
2018-03-23T04:45:10.072Z,1000.35
2018-03-23T04:46:10.126Z,1000.39
2018-03-23T04:47:10.181Z,1000.37
2018-03-23T04:48:10.236Z,1000.38
2018-03-23T04:49:10.289Z,1000.33
2018-03-23T04:50:10.344Z,1000.31
2018-03-23T04:51:10.402Z,1000.27
2018-03-23T04:52:10.453Z,1000.25
2018-03-23T04:53:10.505Z,1000.25
2018-03-23T04:54:10.560Z,1000.25
2018-03-23T04:55:10.631Z,1000.18
2018-03-23T04:56:10.667Z,1000.15
2018-03-23T04:57:10.722Z,1000.13
2018-03-23T04:58:11.027Z,1000.13
2018-03-23T04:59:10.834Z,1000.11
2018-03-23T05:00:10.915Z,1000.10
2018-03-23T05:01:10.971Z,1000.12
2018-03-23T05:02:10.993Z,1000.10
2018-03-23T05:03:11.048Z,1000.12
2018-03-23T05:04:11.100Z,1000.16
2018-03-23T05:05:11.191Z,1000.14
2018-03-23T05:06:11.211Z,1000.17
2018-03-23T05:07:11.265Z,1000.14
2018-03-23T05:08:11.318Z,1000.12
2018-03-23T05:09:11.373Z,1000.12
2018-03-23T05:10:11.431Z,1000.13
2018-03-23T05:11:11.482Z,1000.11
2018-03-23T05:12:11.559Z,1000.10
2018-03-23T05:13:11.592Z,1000.08
2018-03-23T05:14:11.646Z,1000.09
2018-03-23T05:15:11.699Z,1000.04
2018-03-23T05:16:11.755Z,1000.03
2018-03-23T05:17:11.808Z,1000.01
2018-03-23T05:18:11.861Z,1000.02
2018-03-23T05:19:11.917Z,1000.00
2018-03-23T05:20:11.971Z,1000.00
2018-03-23T05:21:12.026Z,999.99
2018-03-23T05:22:12.079Z,1000.01
2018-03-23T05:23:12.172Z,999.98
2018-03-23T05:24:12.190Z,999.99
2018-03-23T05:25:12.243Z,1000.03
2018-03-23T05:26:12.300Z,999.99
2018-03-23T05:27:12.352Z,999.98
2018-03-23T05:28:12.404Z,1000.01
2018-03-23T05:29:12.461Z,1000.00
2018-03-23T05:30:12.515Z,999.97
2018-03-23T05:31:12.568Z,999.98
2018-03-23T05:32:12.625Z,999.97
2018-03-23T05:33:12.678Z,1000.04
2018-03-23T05:34:12.734Z,1000.00
2018-03-23T05:35:12.790Z,1000.00
2018-03-23T05:36:12.841Z,999.97
2018-03-23T05:37:12.894Z,999.95
2018-03-23T05:38:12.951Z,999.97
2018-03-23T05:39:13.005Z,999.98
2018-03-23T05:40:13.063Z,1000.01
2018-03-23T05:41:13.114Z,999.92
2018-03-23T05:42:13.168Z,999.96
2018-03-23T05:43:13.225Z,999.94
2018-03-23T05:44:13.277Z,999.96
2018-03-23T05:45:13.331Z,999.95
2018-03-23T05:46:13.397Z,999.95
2018-03-23T05:47:13.442Z,1000.00
2018-03-23T05:48:13.493Z,1000.02
2018-03-23T05:49:13.698Z,1000.00
2018-03-23T05:50:13.602Z,1000.02
2018-03-23T05:51:13.657Z,1000.07
2018-03-23T05:52:13.711Z,1000.05
2018-03-23T05:53:13.771Z,1000.05
2018-03-23T05:54:13.819Z,1000.08
2018-03-23T05:55:13.875Z,1000.06
2018-03-23T05:56:13.928Z,1000.07
2018-03-23T05:57:13.982Z,1000.06
2018-03-23T05:58:14.038Z,1000.09
2018-03-23T05:59:14.093Z,1000.06
2018-03-23T06:00:14.148Z,1000.05
2018-03-23T06:01:14.199Z,1000.04
2018-03-23T06:02:14.256Z,1000.05
2018-03-23T06:03:14.309Z,1000.04
2018-03-23T06:04:14.395Z,1000.04
2018-03-23T06:05:14.418Z,1000.02
2018-03-23T06:06:14.475Z,1000.02
2018-03-23T06:07:14.535Z,1000.02
2018-03-23T06:08:14.581Z,1000.00
2018-03-23T06:09:14.635Z,1000.03
2018-03-23T06:10:14.691Z,1000.04
2018-03-23T06:11:14.745Z,999.98
2018-03-23T06:12:14.799Z,999.98
2018-03-23T06:13:14.856Z,999.96
2018-03-23T06:14:14.909Z,999.95
2018-03-23T06:15:14.964Z,999.97
2018-03-23T06:16:15.018Z,1000.00
2018-03-23T06:17:15.072Z,1000.01
2018-03-23T06:18:15.127Z,1000.01
2018-03-23T06:19:15.182Z,999.99
2018-03-23T06:20:15.235Z,999.95
2018-03-23T06:21:15.290Z,999.97
2018-03-23T06:22:15.345Z,999.99
2018-03-23T06:23:15.400Z,999.96
2018-03-23T06:24:15.933Z,999.95
2018-03-23T06:25:15.509Z,999.96
2018-03-23T06:26:15.568Z,999.94
2018-03-23T06:27:15.619Z,999.96
2018-03-23T06:28:15.673Z,999.97
2018-03-23T06:29:15.728Z,999.93
2018-03-23T06:30:15.782Z,999.96
2018-03-23T06:31:15.837Z,999.99
2018-03-23T06:32:15.891Z,999.97
2018-03-23T06:33:15.948Z,999.99
2018-03-23T06:34:16.001Z,999.98
2018-03-23T06:35:16.057Z,1000.01
2018-03-23T06:36:16.110Z,999.97
2018-03-23T06:37:16.167Z,999.97
2018-03-23T06:38:16.221Z,1000.04
2018-03-23T06:39:16.276Z,1000.02
2018-03-23T06:40:16.330Z,1000.04
2018-03-23T06:41:16.384Z,1000.00
2018-03-23T06:42:16.441Z,999.96
2018-03-23T06:43:16.496Z,999.96
2018-03-23T06:44:16.548Z,999.95
2018-03-23T06:45:16.605Z,999.96
2018-03-23T06:46:16.660Z,999.96
2018-03-23T06:47:16.715Z,999.97
2018-03-23T06:48:16.769Z,999.93
2018-03-23T06:49:16.824Z,999.93
2018-03-23T06:50:16.881Z,999.92
2018-03-23T06:51:16.935Z,999.94
2018-03-23T06:52:16.989Z,999.89
2018-03-23T06:53:17.046Z,999.86
2018-03-23T06:54:17.101Z,999.84
2018-03-23T06:55:17.156Z,999.81
2018-03-23T06:56:17.212Z,999.82
2018-03-23T06:57:17.267Z,999.86
2018-03-23T06:58:17.322Z,999.83
2018-03-23T06:59:17.393Z,999.85
2018-03-23T07:00:17.442Z,999.90
2018-03-23T07:01:17.489Z,999.85
2018-03-23T07:02:17.578Z,999.87
2018-03-23T07:03:17.601Z,999.86
2018-03-23T07:04:17.656Z,999.89
2018-03-23T07:05:17.711Z,999.86
2018-03-23T07:06:17.767Z,999.89
2018-03-23T07:07:17.828Z,999.85
2018-03-23T07:08:17.879Z,999.85
2018-03-23T07:09:18.085Z,999.85
2018-03-23T07:10:17.992Z,999.87
2018-03-23T07:11:18.047Z,999.87
2018-03-23T07:12:18.102Z,999.88
2018-03-23T07:13:18.161Z,999.86
2018-03-23T07:14:18.218Z,999.85
2018-03-23T07:15:18.271Z,999.83
2018-03-23T07:16:18.335Z,999.85
2018-03-23T07:17:18.384Z,999.82
2018-03-23T07:18:18.439Z,999.79
2018-03-23T07:19:18.496Z,999.77
2018-03-23T07:20:18.554Z,999.78
2018-03-23T07:21:18.615Z,999.79
2018-03-23T07:22:18.665Z,999.82
2018-03-23T07:23:18.722Z,999.84
2018-03-23T07:24:18.777Z,999.87
2018-03-23T07:25:18.834Z,999.91
2018-03-23T07:26:18.892Z,1000.00
2018-03-23T07:27:18.950Z,999.93
2018-03-23T07:28:19.008Z,999.97
2018-03-23T07:29:19.070Z,999.97
2018-03-23T07:30:19.143Z,999.93
2018-03-23T07:31:19.176Z,999.96
2018-03-23T07:32:19.232Z,999.96
2018-03-23T07:33:19.288Z,999.97
2018-03-23T07:34:19.345Z,999.97
2018-03-23T07:35:19.402Z,999.97
2018-03-23T07:36:19.466Z,999.99
2018-03-23T07:37:19.516Z,999.99
2018-03-23T07:38:19.573Z,999.99
2018-03-23T07:39:19.629Z,999.98
2018-03-23T07:40:19.688Z,999.99
2018-03-23T07:41:19.744Z,999.93
2018-03-23T07:42:19.801Z,999.89
2018-03-23T07:43:19.858Z,999.93
2018-03-23T07:44:19.915Z,999.87
2018-03-23T07:45:19.972Z,999.90
2018-03-23T07:46:20.030Z,999.88
2018-03-23T07:47:20.087Z,999.85
2018-03-23T07:48:20.144Z,999.82
2018-03-23T07:49:20.202Z,999.80
2018-03-23T07:50:20.257Z,999.77
2018-03-23T07:51:20.314Z,999.78
2018-03-23T07:52:20.953Z,999.78
2018-03-23T07:53:20.997Z,999.82
2018-03-23T07:54:20.486Z,999.76
2018-03-23T07:55:20.544Z,999.77
2018-03-23T07:56:20.601Z,999.76
2018-03-23T07:57:20.659Z,999.76
2018-03-23T07:58:20.717Z,999.75
2018-03-23T07:59:20.774Z,999.77
2018-03-23T08:00:20.837Z,999.75
2018-03-23T08:01:20.889Z,999.76
2018-03-23T08:02:20.957Z,999.75
2018-03-23T08:03:21.004Z,999.72
2018-03-23T08:04:21.062Z,999.70
2018-03-23T08:05:21.129Z,999.72
2018-03-23T08:06:21.180Z,999.72
2018-03-23T08:07:21.238Z,999.71
2018-03-23T08:08:21.295Z,999.69
2018-03-23T08:09:21.353Z,999.66
2018-03-23T08:10:21.412Z,999.63
2018-03-23T08:11:21.621Z,999.64
2018-03-23T08:12:21.527Z,999.67
2018-03-23T08:13:21.589Z,999.64
2018-03-23T08:14:21.646Z,999.66
2018-03-23T08:15:21.708Z,999.66
2018-03-23T08:16:21.761Z,999.67
2018-03-23T08:17:21.820Z,999.69
2018-03-23T08:18:21.878Z,999.68
2018-03-23T08:19:21.937Z,999.67
2018-03-23T08:20:21.995Z,999.64
2018-03-23T08:21:22.054Z,999.62
2018-03-23T08:22:22.113Z,999.62
2018-03-23T08:23:22.425Z,999.62
2018-03-23T08:24:22.289Z,999.62
2018-03-23T08:25:22.288Z,999.60
2018-03-23T08:26:22.347Z,999.59
2018-03-23T08:27:22.447Z,999.59
2018-03-23T08:28:22.464Z,999.59
2018-03-23T08:29:22.521Z,999.58
2018-03-23T08:30:22.608Z,999.61
2018-03-23T08:31:22.639Z,999.60
2018-03-23T08:32:22.696Z,999.58
2018-03-23T08:33:22.756Z,999.56
2018-03-23T08:34:22.817Z,999.58
2018-03-23T08:35:22.875Z,999.55
2018-03-23T08:36:22.997Z,999.52
2018-03-23T08:37:22.990Z,999.50
2018-03-23T08:38:23.659Z,999.50
2018-03-23T08:39:23.109Z,999.52
2018-03-23T08:40:23.168Z,999.43
2018-03-23T08:41:23.477Z,999.40
2018-03-23T08:42:23.289Z,999.36
2018-03-23T08:43:23.345Z,999.38
2018-03-23T08:44:23.422Z,999.36
2018-03-23T08:45:23.463Z,999.35
2018-03-23T08:46:23.549Z,999.34
2018-03-23T08:47:23.583Z,999.34
2018-03-23T08:48:23.638Z,999.33
2018-03-23T08:49:23.698Z,999.36
2018-03-23T08:50:23.756Z,999.34
2018-03-23T08:51:23.817Z,999.30
2018-03-23T08:52:23.875Z,999.30
2018-03-23T08:53:23.932Z,999.26
2018-03-23T08:54:23.995Z,999.28
2018-03-23T08:55:24.051Z,999.30
2018-03-23T08:56:24.155Z,999.30
2018-03-23T08:57:24.168Z,999.26
2018-03-23T08:58:24.228Z,999.25
2018-03-23T08:59:24.286Z,999.25
2018-03-23T09:00:24.344Z,999.27
2018-03-23T09:01:24.404Z,999.28
2018-03-23T09:02:24.469Z,999.22
2018-03-23T09:03:24.774Z,999.19
2018-03-23T09:04:24.588Z,999.14
2018-03-23T09:05:24.641Z,999.17
2018-03-23T09:06:24.702Z,999.14
2018-03-23T09:07:24.760Z,999.14
2018-03-23T09:08:24.820Z,999.12
2018-03-23T09:09:24.879Z,999.08
2018-03-23T09:10:24.938Z,999.05
2018-03-23T09:11:24.998Z,999.01
2018-03-23T09:12:25.055Z,999.01
2018-03-23T09:13:25.115Z,999.04
2018-03-23T09:14:25.175Z,999.03
2018-03-23T09:15:25.273Z,999.04
2018-03-23T09:16:25.715Z,999.05
2018-03-23T09:17:25.353Z,999.03
2018-03-23T09:18:25.412Z,999.04
2018-03-23T09:19:25.473Z,999.00
2018-03-23T09:20:25.532Z,999.00
2018-03-23T09:21:25.590Z,998.99
2018-03-23T09:22:25.649Z,998.97
2018-03-23T09:23:25.710Z,998.95
2018-03-23T09:24:25.772Z,998.96
2018-03-23T09:25:25.828Z,998.91
2018-03-23T09:26:25.908Z,998.86
2018-03-23T09:27:26.098Z,998.83
2018-03-23T09:28:26.167Z,998.77
2018-03-23T09:29:26.065Z,998.83
2018-03-23T09:30:26.127Z,998.81
2018-03-23T09:31:26.187Z,998.86
2018-03-23T09:32:26.570Z,998.88
2018-03-23T09:33:26.405Z,998.90
2018-03-23T09:34:26.366Z,998.85
2018-03-23T09:35:26.426Z,998.81
2018-03-23T09:36:26.482Z,998.83
2018-03-23T09:37:26.543Z,998.90
2018-03-23T09:38:26.604Z,998.94
2018-03-23T09:39:26.664Z,998.93
2018-03-23T09:40:26.721Z,998.90
2018-03-23T09:41:26.782Z,998.87
2018-03-23T09:42:26.843Z,998.80
2018-03-23T09:43:27.386Z,998.85
2018-03-23T09:44:26.962Z,998.86
2018-03-23T09:45:27.021Z,998.93
2018-03-23T09:46:27.082Z,998.92
2018-03-23T09:47:27.142Z,998.91
2018-03-23T09:48:27.202Z,998.81
2018-03-23T09:49:27.261Z,998.67
2018-03-23T09:50:27.340Z,998.67
2018-03-23T09:51:27.385Z,998.68
2018-03-23T09:52:27.444Z,998.66
2018-03-23T09:53:27.503Z,998.69
2018-03-23T09:54:27.561Z,998.75
2018-03-23T09:55:27.622Z,998.76
2018-03-23T09:56:27.680Z,998.68
2018-03-23T09:57:27.741Z,998.68
2018-03-23T09:58:27.804Z,998.69
2018-03-23T09:59:27.860Z,998.69
2018-03-23T10:00:27.925Z,998.66
2018-03-23T10:01:27.980Z,998.68
2018-03-23T10:02:28.039Z,998.70
2018-03-23T10:03:28.172Z,998.70
2018-03-23T10:04:28.168Z,998.69
2018-03-23T10:05:28.234Z,998.62
2018-03-23T10:06:28.281Z,998.55
2018-03-23T10:07:28.340Z,998.57
2018-03-23T10:08:28.403Z,998.57
2018-03-23T10:09:28.460Z,998.35
2018-03-23T10:10:28.519Z,998.39
2018-03-23T10:11:28.580Z,998.43
2018-03-23T10:12:28.638Z,998.58
2018-03-23T10:13:28.698Z,998.46
2018-03-23T10:14:28.760Z,998.47
2018-03-23T10:15:28.864Z,998.37
2018-03-23T10:16:28.879Z,998.33
2018-03-23T10:17:28.939Z,998.27
2018-03-23T10:18:28.999Z,998.15
2018-03-23T10:19:29.061Z,998.17
2018-03-23T10:20:29.118Z,998.17
2018-03-23T10:21:29.202Z,998.14
2018-03-23T10:22:29.239Z,998.17
2018-03-23T10:23:29.299Z,998.12
2018-03-23T10:24:29.359Z,998.08
2018-03-23T10:25:29.419Z,998.09
2018-03-23T10:26:29.479Z,998.11
2018-03-23T10:27:29.537Z,998.07
2018-03-23T10:28:29.629Z,998.10
2018-03-23T10:29:29.656Z,998.02
2018-03-23T10:30:29.717Z,998.05
2018-03-23T10:31:29.777Z,998.04
2018-03-23T10:32:29.835Z,997.95
2018-03-23T10:33:29.897Z,997.94
2018-03-23T10:34:29.956Z,997.90
2018-03-23T10:35:30.044Z,997.90
2018-03-23T10:36:30.742Z,997.94
2018-03-23T10:37:30.135Z,997.90
2018-03-23T10:38:30.194Z,997.83
2018-03-23T10:39:30.282Z,997.91
2018-03-23T10:40:30.315Z,997.86
2018-03-23T10:41:30.372Z,997.86
2018-03-23T10:42:30.433Z,997.80
2018-03-23T10:43:30.493Z,997.89
2018-03-23T10:44:30.552Z,997.90
2018-03-23T10:45:30.611Z,997.81
2018-03-23T10:46:30.670Z,997.87
2018-03-23T10:47:30.729Z,997.87
2018-03-23T10:48:31.159Z,997.87
2018-03-23T10:49:30.883Z,997.82
2018-03-23T10:50:30.909Z,997.83
2018-03-23T10:51:30.969Z,997.88
2018-03-23T10:52:31.027Z,997.84
2018-03-23T10:53:31.141Z,997.85
2018-03-23T10:54:31.147Z,997.90
2018-03-23T10:55:31.207Z,997.83
2018-03-23T10:56:31.265Z,997.87
2018-03-23T10:57:31.475Z,997.86
2018-03-23T10:58:31.388Z,997.87
2018-03-23T10:59:31.444Z,997.83
2018-03-23T11:00:31.502Z,997.85
2018-03-23T11:01:31.567Z,997.86
2018-03-23T11:02:31.621Z,997.79
2018-03-23T11:03:31.681Z,997.85
2018-03-23T11:04:31.739Z,997.76
2018-03-23T11:05:31.800Z,997.72
2018-03-23T11:06:31.858Z,997.74
2018-03-23T11:07:31.918Z,997.69
2018-03-23T11:08:31.976Z,997.71
2018-03-23T11:09:32.186Z,997.71
2018-03-23T11:10:32.095Z,997.65
2018-03-23T11:11:32.155Z,997.64
2018-03-23T11:12:32.214Z,997.61
2018-03-23T11:13:32.273Z,997.67
2018-03-23T11:14:32.331Z,997.65
2018-03-23T11:15:32.393Z,997.66
2018-03-23T11:16:32.449Z,997.67
2018-03-23T11:17:32.509Z,997.71
2018-03-23T11:18:32.568Z,997.68
2018-03-23T11:19:32.627Z,997.60
2018-03-23T11:20:32.835Z,997.57
2018-03-23T11:21:32.744Z,997.62
2018-03-23T11:22:32.803Z,997.50
2018-03-23T11:23:32.863Z,997.49
2018-03-23T11:24:32.921Z,997.50
2018-03-23T11:25:32.982Z,997.38
2018-03-23T11:26:33.038Z,997.52
2018-03-23T11:27:33.098Z,997.48
2018-03-23T11:28:33.155Z,997.48
2018-03-23T11:29:33.214Z,997.46
2018-03-23T11:30:33.273Z,997.43
2018-03-23T11:31:33.332Z,997.41
2018-03-23T11:32:33.389Z,997.50
2018-03-23T11:33:33.447Z,997.44
2018-03-23T11:34:33.507Z,997.44
2018-03-23T11:35:33.566Z,997.43
2018-03-23T11:36:33.623Z,997.37
2018-03-23T11:37:33.681Z,997.45
2018-03-23T11:38:33.740Z,997.46
2018-03-23T11:39:33.799Z,997.50
2018-03-23T11:40:33.856Z,997.46
2018-03-23T11:41:33.915Z,997.42
2018-03-23T11:42:33.973Z,997.44
2018-03-23T11:43:34.183Z,997.46
2018-03-23T11:44:34.089Z,997.46
2018-03-23T11:45:34.148Z,997.38
2018-03-23T11:46:34.228Z,997.45
2018-03-23T11:47:34.264Z,997.41
2018-03-23T11:48:34.321Z,997.36
2018-03-23T11:49:34.385Z,997.36
2018-03-23T11:50:34.438Z,997.35
2018-03-23T11:51:34.495Z,997.37
2018-03-23T11:52:34.556Z,997.33
2018-03-23T11:53:34.611Z,997.36
2018-03-23T11:54:34.670Z,997.30
2018-03-23T11:55:34.726Z,997.29
2018-03-23T11:56:34.786Z,997.29
2018-03-23T11:57:34.842Z,997.28
2018-03-23T11:58:34.901Z,997.27
2018-03-23T11:59:34.958Z,997.30
2018-03-23T12:00:35.016Z,997.31
2018-03-23T12:01:35.532Z,997.32
2018-03-23T12:02:35.133Z,997.32
2018-03-23T12:03:35.202Z,997.32
2018-03-23T12:04:35.250Z,997.35
2018-03-23T12:05:35.308Z,997.32
2018-03-23T12:06:35.364Z,997.25
2018-03-23T12:07:35.421Z,997.33
2018-03-23T12:08:35.478Z,997.26
2018-03-23T12:09:35.536Z,997.23
2018-03-23T12:10:35.596Z,997.18
2018-03-23T12:11:35.654Z,997.24
2018-03-23T12:12:35.709Z,997.21
2018-03-23T12:13:35.768Z,997.15
2018-03-23T12:14:35.828Z,997.15
2018-03-23T12:15:35.884Z,997.15
2018-03-23T12:16:35.941Z,997.16
2018-03-23T12:17:36.000Z,997.13
2018-03-23T12:18:36.058Z,997.16